首页
METAR-TAF:

METAR-TAF

机场 :

华盛顿杜勒斯国际机场

华盛顿, 弗吉尼亚州, 美国

纬度: 38-56-05N, 经度: 077-26-51W, 海拔: 95米

当前天气观测

该预报发布于36分钟前的00:52 UTC
风速6节,风向
温度 22°C
湿度 94%
气压 1013 hPa
能見度: 16.1公里
散云层高于4800英尺
散云层高于6000英尺, 塔状积云.
多云层高于11000英尺
多云层高于25000英尺

METAR: KIAD 190052Z 19006KT 10SM SCT048 SCT060TCU BKN110 BKN250 22/21 A2991 RMK AO2 SLP124 TCU SW AND W MOV E T02220206 $

时间: 21:28 (01:28 UTC)

预报

该预报发布于1小时和51分钟前的23:37 UTC
预报有效从19日的 00点(UTC)到 20日的 06点(UTC)
风速10节,风向西南
能見度: 10公里
多云层高于5000英尺
多云层高于11000英尺
小阵雨
从 19日的 0300点(UTC)
风速4节,风向南转西南
能見度: 9.7公里
散云层高于2000英尺
阴天层高于3500英尺
小阵雨
从 19日的 0500点(UTC)
风速节,风向
能見度: 10公里
散云层高于2500英尺
阴天层高于5000英尺
从 19日的 1200点(UTC)
风速4节,风向
能見度: 10公里
散云层高于2000英尺
阴天层高于5000英尺
从 19日的 1800点(UTC)
风速5节,风向
能見度: 8.0公里
散云层高于2500英尺
阴天层高于25000英尺
小阵雨

TAF: KIAD 182337Z 1900/2006 22010KT P6SM -SHRA BKN050 BKN110 FM190300 20004KT 6SM -SHRA SCT020 OVC035 FM190500 00000KT P6SM SCT025 OVC050 FM191200 19004KT P6SM SCT020 OVC050 FM191800 17005KT 5SM -SHRA SCT025 OVC250

超过4000个机场的气象观测和天气预报(METAR&TAF报告)。

可查询的气象台以黄色和红色小点在地图上表示。

将鼠标移到小点上方,可查看气象台名称。

然后点击查看天气观测和预报。

如需切换地图:点击带黑十字的绿色按钮放大地图;点击带横线的绿色按钮缩小地图;或者点击绿色箭头查看邻近地区的地图。


METAR-TAF: